CheckWX is a tool to help pilots better visualize weather data.  It is not intended as a substitute for an official pre-flight weather briefing.

12:24:05 UTC

KEFD TAF
Ellington Airport
Houston, Texas, USA
TAF KEFD 161200Z 1612/1718 VRB06KT 9999 BKN020 QNH2996INS BECMG 1615/1616 19010G15KT 9999 FEW020 SCT040 SCT250 QNH3000INS BECMG 1620/1621 18010G15KT 8000 -SHRA BKN040 QNH2999INS BECMG 1623/1624 17009KT 9999 NSW FEW030 SCT250 QNH2996INS BECMG 1702/1703 17006KT 9999 BKN020 QNH2995INS BECMG 1713/1714 17012KT 9999 SCT020 BKN160 QNH3003INS TX32/1618Z TN26/1612Z

Jul-16@
12:00 UTC

Jul-16 @ 12:00 UTC

Jul-16@
15:00 UTC

Jul-16 @ 15:00 UTC

TAF KEFD 161200Z 1612/1718 VRB06KT 9999 BKN020 QNH2996INS
Wind
  • Variable at 6 KTS
Cloud Levels
  • Broken at 2,000' AGL

Jul-16@
15:00 UTC

Jul-16 @ 15:00 UTC

Jul-16@
20:00 UTC

Jul-16 @ 20:00 UTC

BECMG 1615/1616 19010G15KT 9999 FEW020 SCT040 SCT250 QNH3000INS

Becoming

Becoming Conditions expected by Tue, Jul 16, 2019 @ 16:00 UTC

Wind
  • 190° at 10 KTS
  • {Gusting to 15 KTS
Cloud Levels
  • Few at 2,000' AGL
  • Scattered at 4,000' AGL
  • Scattered at 25,000' AGL

Jul-16@
20:00 UTC

Jul-16 @ 20:00 UTC

Jul-16@
23:00 UTC

Jul-16 @ 23:00 UTC

BECMG 1620/1621 18010G15KT 8000 -SHRA BKN040 QNH2999INS

Becoming

Becoming Conditions expected by Tue, Jul 16, 2019 @ 21:00 UTC

Wind
  • 180° at 10 KTS
  • {Gusting to 15 KTS
Conditions
Light Rain
Cloud Levels
  • Broken at 4,000' AGL

Jul-16@
23:00 UTC

Jul-16 @ 23:00 UTC

Jul-17@
02:00 UTC

Jul-17 @ 02:00 UTC

BECMG 1623/1624 17009KT 9999 NSW FEW030 SCT250 QNH2996INS

Becoming

Becoming Conditions expected by Wed, Jul 17, 2019 @ 00:00 UTC

Wind
  • 170° at 9 KTS
Conditions
No significant weather
Cloud Levels
  • Few at 3,000' AGL
  • Scattered at 25,000' AGL

Jul-17@
02:00 UTC

Jul-17 @ 02:00 UTC

Jul-17@
13:00 UTC

Jul-17 @ 13:00 UTC

BECMG 1702/1703 17006KT 9999 BKN020 QNH2995INS

Becoming

Becoming Conditions expected by Wed, Jul 17, 2019 @ 03:00 UTC

Wind
  • 170° at 6 KTS
Conditions
No significant weather
Cloud Levels
  • Broken at 2,000' AGL

Jul-17@
13:00 UTC

Jul-17 @ 13:00 UTC

Jul-17@
18:00 UTC

Jul-17 @ 18:00 UTC

BECMG 1713/1714 17012KT 9999 SCT020 BKN160 QNH3003INS TX32/1618Z TN26/1612Z

Becoming

Becoming Conditions expected by Wed, Jul 17, 2019 @ 14:00 UTC

Wind
  • 170° at 12 KTS
Conditions
No significant weather
Cloud Levels
  • Scattered at 2,000' AGL
  • Broken at 16,000' AGL